createdAt,value
2023-05-14T00:01:10.085Z,3.50
2023-05-14T00:03:40.030Z,3.35
2023-05-14T00:06:10.953Z,3.42
2023-05-14T00:08:38.973Z,3.65
2023-05-14T00:11:09.118Z,3.38
2023-05-14T00:13:39.810Z,3.60
2023-05-14T00:16:07.994Z,3.38
2023-05-14T00:18:36.068Z,3.58
2023-05-14T00:21:04.040Z,3.83
2023-05-14T00:23:33.446Z,3.58
2023-05-14T00:26:01.886Z,3.58
2023-05-14T00:28:29.981Z,3.30
2023-05-14T00:30:58.059Z,3.47
2023-05-14T00:33:26.050Z,3.28
2023-05-14T00:35:54.138Z,3.47
2023-05-14T00:38:24.173Z,3.22
2023-05-14T00:40:53.530Z,3.65
2023-05-14T00:43:22.651Z,3.70
2023-05-14T00:45:52.179Z,3.75
2023-05-14T00:48:21.462Z,3.72
2023-05-14T00:50:50.626Z,3.65
2023-05-14T00:53:19.910Z,3.60
2023-05-14T00:55:49.857Z,3.83
2023-05-14T00:58:19.777Z,3.53
2023-05-14T01:00:48.079Z,3.92
2023-05-14T01:03:16.411Z,3.67
2023-05-14T01:06:02.496Z,3.88
2023-05-14T01:08:48.793Z,3.47
2023-05-14T01:11:21.617Z,3.63
2023-05-14T01:14:00.304Z,3.30
2023-05-14T01:16:30.644Z,3.70
2023-05-14T01:19:00.917Z,3.30
2023-05-14T01:21:40.448Z,3.40
2023-05-14T01:24:09.325Z,3.65
2023-05-14T01:26:38.230Z,4.05
2023-05-14T01:29:15.052Z,4.03
2023-05-14T01:31:45.499Z,3.90
2023-05-14T01:34:15.235Z,3.60
2023-05-14T01:36:45.538Z,3.63
2023-05-14T01:39:17.949Z,3.83
2023-05-14T01:41:47.567Z,3.72
2023-05-14T01:44:16.166Z,3.50
2023-05-14T01:49:12.309Z,4.00
2023-05-14T01:51:40.264Z,3.83
2023-05-14T01:54:10.236Z,3.60
2023-05-14T01:56:38.188Z,3.85
2023-05-14T01:59:06.290Z,4.20
2023-05-14T02:01:34.476Z,3.95
2023-05-14T02:04:02.592Z,3.80
2023-05-14T02:06:31.728Z,3.50
2023-05-14T02:09:02.154Z,3.90
2023-05-14T02:11:31.487Z,3.85
2023-05-14T02:13:59.523Z,3.90
2023-05-14T02:16:27.659Z,3.70
2023-05-14T02:18:55.748Z,4.35
2023-05-14T02:21:23.701Z,3.47
2023-05-14T02:23:51.668Z,3.80
2023-05-14T02:26:19.684Z,3.58
2023-05-14T02:28:49.031Z,3.42
2023-05-14T02:31:17.682Z,4.10
2023-05-14T02:36:13.467Z,4.03
2023-05-14T02:38:41.831Z,3.92
2023-05-14T02:41:09.857Z,3.85
2023-05-14T02:43:37.822Z,3.78
2023-05-14T02:46:07.291Z,3.92
2023-05-14T02:48:35.260Z,3.80
2023-05-14T02:51:03.655Z,4.15
2023-05-14T02:53:31.670Z,3.60
2023-05-14T02:55:59.670Z,3.75
2023-05-14T02:58:28.359Z,4.13
2023-05-14T03:00:56.779Z,3.97
2023-05-14T03:03:26.516Z,3.53
2023-05-14T03:05:55.185Z,4.10
2023-05-14T03:08:23.273Z,4.10
2023-05-14T03:10:51.336Z,4.35
2023-05-14T03:13:20.845Z,3.58
2023-05-14T03:15:54.840Z,4.10
2023-05-14T03:18:23.035Z,4.07
2023-05-14T03:20:52.387Z,4.05
2023-05-14T03:23:20.362Z,4.25
2023-05-14T03:25:48.325Z,4.40
2023-05-14T03:28:16.303Z,4.00
2023-05-14T03:30:44.389Z,4.22
2023-05-14T03:33:12.776Z,4.80
2023-05-14T03:35:40.743Z,4.15
2023-05-14T03:38:10.050Z,4.13
2023-05-14T03:40:38.034Z,4.53
2023-05-14T03:43:06.076Z,4.10
2023-05-14T03:45:34.800Z,4.60
2023-05-14T03:48:02.860Z,3.67
2023-05-14T03:50:30.942Z,4.18
2023-05-14T03:52:59.209Z,4.25
2023-05-14T03:55:28.545Z,3.88
2023-05-14T03:57:56.529Z,3.95
2023-05-14T04:00:25.021Z,3.88
2023-05-14T04:02:53.422Z,3.90
2023-05-14T04:05:21.767Z,3.92
2023-05-14T04:07:49.719Z,4.18
2023-05-14T04:10:17.655Z,4.20
2023-05-14T04:12:46.999Z,4.10
2023-05-14T04:15:14.981Z,5.03
2023-05-14T04:17:42.935Z,4.80
2023-05-14T04:20:11.646Z,4.15
2023-05-14T04:22:39.618Z,4.30
2023-05-14T04:25:08.420Z,4.07
2023-05-14T04:27:36.410Z,4.00
2023-05-14T04:30:06.805Z,4.82
2023-05-14T04:32:37.394Z,4.40
2023-05-14T04:35:06.092Z,4.72
2023-05-14T04:40:02.300Z,4.07
2023-05-14T04:42:33.313Z,4.60
2023-05-14T04:45:05.257Z,4.03
2023-05-14T04:47:34.719Z,4.50
2023-05-14T04:50:02.903Z,4.18
2023-05-14T04:52:30.893Z,4.10
2023-05-14T04:54:58.814Z,4.32
2023-05-14T04:57:26.818Z,4.43
2023-05-14T04:59:54.825Z,4.10
2023-05-14T05:02:22.826Z,4.40
2023-05-14T05:04:52.240Z,3.83
2023-05-14T05:07:20.221Z,4.38
2023-05-14T05:09:48.193Z,4.03
2023-05-14T05:12:16.215Z,4.35
2023-05-14T05:14:44.120Z,4.18
2023-05-14T05:17:12.110Z,4.38
2023-05-14T05:19:44.029Z,4.03
2023-05-14T05:22:14.010Z,4.25
2023-05-14T05:24:42.034Z,4.32
2023-05-14T05:27:10.006Z,4.70
2023-05-14T05:29:37.986Z,4.65
2023-05-14T05:32:06.843Z,3.88
2023-05-14T05:34:35.921Z,4.25
2023-05-14T05:37:05.280Z,3.83
2023-05-14T05:39:34.974Z,4.22
2023-05-14T05:42:03.659Z,4.22
2023-05-14T05:44:31.664Z,3.90
2023-05-14T05:46:59.734Z,4.15
2023-05-14T05:49:27.822Z,3.47
2023-05-14T05:51:55.829Z,4.00
2023-05-14T05:54:27.372Z,3.80
2023-05-14T05:56:56.890Z,3.80
2023-05-14T05:59:25.436Z,4.05
2023-05-14T06:04:21.536Z,3.72
2023-05-14T06:06:49.714Z,3.85
2023-05-14T06:09:17.698Z,3.75
2023-05-14T06:11:45.722Z,4.00
2023-05-14T06:14:15.041Z,3.50
2023-05-14T06:16:43.072Z,3.58
2023-05-14T06:19:11.346Z,3.60
2023-05-14T06:21:39.543Z,4.05
2023-05-14T06:24:08.246Z,3.85
2023-05-14T06:26:36.202Z,3.30
2023-05-14T06:29:04.152Z,3.63
2023-05-14T06:31:33.754Z,3.67
2023-05-14T06:34:01.731Z,3.30
2023-05-14T06:36:29.688Z,3.58
2023-05-14T06:38:57.678Z,3.35
2023-05-14T06:41:26.209Z,3.22
2023-05-14T06:43:55.339Z,3.58
2023-05-14T06:46:23.427Z,3.60
2023-05-14T06:48:57.994Z,3.60
2023-05-14T06:51:27.207Z,3.20
2023-05-14T06:53:56.106Z,3.30
2023-05-14T06:56:24.104Z,3.50
2023-05-14T06:58:52.209Z,3.30
2023-05-14T07:01:20.260Z,3.40
2023-05-14T07:03:48.315Z,3.53
2023-05-14T07:06:17.737Z,3.40
2023-05-14T07:08:47.408Z,2.97
2023-05-14T07:11:15.702Z,2.92
2023-05-14T07:13:44.084Z,3.47
2023-05-14T07:16:12.039Z,3.17
2023-05-14T07:18:40.387Z,2.80
2023-05-14T07:21:08.325Z,3.00
2023-05-14T07:23:38.587Z,3.20
2023-05-14T07:26:07.093Z,3.30
2023-05-14T07:28:35.230Z,3.10
2023-05-14T07:31:05.128Z,3.20
2023-05-14T07:33:33.161Z,3.35
2023-05-14T07:36:02.396Z,3.40
2023-05-14T07:38:30.555Z,3.08
2023-05-14T07:40:59.855Z,3.55
2023-05-14T07:43:28.088Z,3.70
2023-05-14T07:45:56.654Z,3.50
2023-05-14T07:48:24.690Z,4.05
2023-05-14T07:50:52.649Z,4.47
2023-05-14T07:53:20.605Z,4.30
2023-05-14T07:55:50.542Z,4.80
2023-05-14T07:58:19.846Z,4.60
2023-05-14T08:00:47.839Z,4.72
2023-05-14T08:03:15.821Z,4.90
2023-05-14T08:05:43.892Z,4.65
2023-05-14T08:08:12.564Z,4.55
2023-05-14T08:10:40.602Z,4.35
2023-05-14T08:13:08.576Z,4.38
2023-05-14T08:15:37.877Z,4.63
2023-05-14T08:18:06.062Z,4.38
2023-05-14T08:20:34.058Z,4.95
2023-05-14T08:23:02.128Z,4.25
2023-05-14T08:25:30.143Z,4.35
2023-05-14T08:27:59.855Z,4.20
2023-05-14T08:30:28.346Z,3.75
2023-05-14T08:32:59.794Z,4.00
2023-05-14T08:35:27.804Z,3.20
2023-05-14T08:37:57.122Z,3.42
2023-05-14T08:40:25.367Z,3.17
2023-05-14T08:42:54.114Z,3.75
2023-05-14T08:45:25.789Z,3.50
2023-05-14T08:47:54.319Z,3.60
2023-05-14T08:50:24.097Z,3.03
2023-05-14T08:52:52.838Z,2.83
2023-05-14T08:55:21.330Z,3.03
2023-05-14T08:57:49.867Z,2.67
2023-05-14T09:00:18.744Z,3.33
2023-05-14T09:02:51.036Z,3.20
2023-05-14T09:05:23.178Z,3.17
2023-05-14T09:07:53.109Z,2.90
2023-05-14T09:10:22.648Z,3.30
2023-05-14T09:12:51.713Z,3.10
2023-05-14T09:15:19.877Z,3.17
2023-05-14T09:17:48.740Z,2.83
2023-05-14T09:20:17.076Z,3.00
2023-05-14T09:25:14.275Z,2.67
2023-05-14T09:27:42.270Z,2.70
2023-05-14T09:30:11.928Z,2.58
2023-05-14T09:32:40.956Z,2.80
2023-05-14T09:35:17.932Z,2.70
2023-05-14T09:37:48.537Z,2.60
2023-05-14T09:40:22.035Z,2.53
2023-05-14T09:42:50.568Z,3.03
2023-05-14T09:45:19.247Z,2.97
2023-05-14T09:47:47.558Z,3.03
2023-05-14T09:50:15.781Z,3.05
2023-05-14T09:52:43.826Z,2.53
2023-05-14T09:55:14.144Z,2.70
2023-05-14T09:57:43.717Z,2.70
2023-05-14T10:00:12.797Z,2.95
2023-05-14T10:02:43.114Z,2.63
2023-05-14T10:05:13.352Z,2.53
2023-05-14T10:07:45.848Z,2.60
2023-05-14T10:10:17.148Z,2.45
2023-05-14T10:12:52.893Z,2.70
2023-05-14T10:15:25.103Z,2.47
2023-05-14T10:17:57.508Z,2.30
2023-05-14T10:20:27.938Z,2.40
2023-05-14T10:22:56.281Z,2.50
2023-05-14T10:25:24.874Z,2.50
2023-05-14T10:27:55.207Z,2.25
2023-05-14T10:30:24.457Z,2.58
2023-05-14T10:33:08.299Z,2.35
2023-05-14T10:35:58.518Z,2.63
2023-05-14T10:38:28.478Z,2.50
2023-05-14T10:41:01.962Z,2.60
2023-05-14T10:43:32.907Z,2.55
2023-05-14T10:46:02.880Z,2.70
2023-05-14T10:48:31.400Z,2.65
2023-05-14T10:50:59.570Z,2.20
2023-05-14T10:56:05.952Z,2.70
2023-05-14T10:58:37.642Z,2.42
2023-05-14T11:01:07.437Z,2.70
2023-05-14T11:03:42.076Z,2.42
2023-05-14T11:06:11.285Z,2.70
2023-05-14T11:08:39.944Z,2.63
2023-05-14T11:11:08.627Z,2.95
2023-05-14T11:13:37.985Z,2.55
2023-05-14T11:18:38.984Z,2.80
2023-05-14T11:21:07.046Z,2.83
2023-05-14T11:23:35.047Z,2.80
2023-05-14T11:26:03.496Z,2.38
2023-05-14T11:28:31.605Z,2.70
2023-05-14T11:31:01.080Z,2.65
2023-05-14T11:33:29.359Z,2.70
2023-05-14T11:35:57.262Z,2.22
2023-05-14T11:38:25.208Z,2.40
2023-05-14T11:40:54.361Z,2.30
2023-05-14T11:43:23.761Z,2.10
2023-05-14T11:45:52.675Z,2.33
2023-05-14T11:48:22.802Z,2.30
2023-05-14T11:50:52.192Z,2.20
2023-05-14T11:53:20.877Z,2.60
2023-05-14T11:55:49.108Z,2.15
2023-05-14T11:58:18.920Z,2.33
2023-05-14T12:00:47.524Z,2.60
2023-05-14T12:03:15.777Z,2.40
2023-05-14T12:05:58.179Z,2.28
2023-05-14T12:08:28.632Z,2.50
2023-05-14T12:10:56.978Z,2.20
2023-05-14T12:13:27.657Z,2.30
2023-05-14T12:15:57.294Z,2.60
2023-05-14T12:18:27.070Z,2.90
2023-05-14T12:20:57.583Z,2.30
2023-05-14T12:23:31.259Z,2.30
2023-05-14T12:26:04.004Z,2.10
2023-05-14T12:28:34.240Z,2.90
2023-05-14T12:31:04.289Z,2.10
2023-05-14T12:33:32.300Z,2.58
2023-05-14T12:36:09.993Z,2.30
2023-05-14T12:38:50.237Z,2.13
2023-05-14T12:41:18.911Z,2.35
2023-05-14T12:43:49.020Z,2.33
2023-05-14T12:46:17.279Z,2.20
2023-05-14T12:48:45.596Z,2.35
2023-05-14T12:51:13.868Z,2.22
2023-05-14T12:53:42.003Z,2.53
2023-05-14T12:58:39.317Z,2.35
2023-05-14T13:03:35.024Z,2.30
2023-05-14T13:06:05.439Z,2.20
2023-05-14T13:08:33.395Z,2.30
2023-05-14T13:11:01.344Z,2.63
2023-05-14T13:13:30.775Z,2.20
2023-05-14T13:18:45.434Z,2.15
2023-05-14T13:23:41.140Z,2.20
2023-05-14T13:26:09.148Z,2.03
2023-05-14T13:28:38.489Z,2.30
2023-05-14T13:31:08.292Z,2.28
2023-05-14T13:33:37.915Z,2.30
2023-05-14T13:36:06.445Z,2.40
2023-05-14T13:38:34.816Z,2.08
2023-05-14T13:41:03.104Z,2.20
2023-05-14T13:43:31.545Z,2.17
2023-05-14T13:46:01.485Z,2.20
2023-05-14T13:48:30.976Z,2.03
2023-05-14T13:50:59.221Z,2.30
2023-05-14T13:56:01.320Z,1.85
2023-05-14T13:58:29.763Z,2.13
2023-05-14T14:01:00.599Z,2.15
2023-05-14T14:03:28.520Z,2.35
2023-05-14T14:05:56.503Z,2.03
2023-05-14T14:08:27.696Z,2.50
2023-05-14T14:10:55.912Z,2.67
2023-05-14T14:15:52.591Z,2.58
2023-05-14T14:20:50.089Z,2.17
2023-05-14T14:25:48.449Z,2.28
2023-05-14T14:28:16.375Z,2.60
2023-05-14T14:30:44.878Z,2.15
2023-05-14T14:33:12.948Z,2.45
2023-05-14T14:35:42.432Z,2.00
2023-05-14T14:38:10.369Z,2.20
2023-05-14T14:40:41.427Z,3.35
2023-05-14T14:43:09.375Z,2.40
2023-05-14T14:45:37.698Z,2.10
2023-05-14T14:48:26.322Z,1.88
2023-05-14T14:50:56.484Z,2.08
2023-05-14T14:53:25.352Z,2.10
2023-05-14T14:55:53.595Z,1.77
2023-05-14T14:58:22.260Z,2.00
2023-05-14T15:00:52.248Z,2.03
2023-05-14T15:03:20.873Z,2.35
2023-05-14T15:05:49.193Z,6.45
2023-05-14T15:08:18.656Z,2.10
2023-05-14T15:10:46.935Z,2.60
2023-05-14T15:13:14.957Z,2.20
2023-05-14T15:15:43.034Z,2.63
2023-05-14T15:18:11.317Z,1.85
2023-05-14T15:20:39.368Z,2.03
2023-05-14T15:23:07.484Z,2.45
2023-05-14T15:25:37.465Z,1.95
2023-05-14T15:28:16.853Z,2.22
2023-05-14T15:30:44.822Z,2.25
2023-05-14T15:33:12.753Z,1.90
2023-05-14T15:35:40.747Z,2.05
2023-05-14T15:38:08.998Z,2.08
2023-05-14T15:40:38.420Z,2.20
2023-05-14T15:43:06.755Z,2.63
2023-05-14T15:45:34.755Z,2.85
2023-05-14T15:48:02.833Z,12.23
2023-05-14T15:50:30.819Z,6.57
2023-05-14T15:52:58.855Z,5.70
2023-05-14T15:55:26.896Z,5.25
2023-05-14T15:57:56.265Z,4.65
2023-05-14T16:00:25.038Z,2.25
2023-05-14T16:02:53.645Z,2.20
2023-05-14T16:05:21.663Z,2.65
2023-05-14T16:07:49.918Z,2.33
2023-05-14T16:12:45.726Z,2.40
2023-05-14T16:15:15.129Z,2.03
2023-05-14T16:17:43.198Z,2.15
2023-05-14T16:20:12.928Z,2.33
2023-05-14T16:22:40.850Z,2.30
2023-05-14T16:25:09.532Z,2.30
2023-05-14T16:27:37.631Z,2.60
2023-05-14T16:30:06.939Z,2.50
2023-05-14T16:32:36.354Z,2.20
2023-05-14T16:35:04.574Z,2.72
2023-05-14T16:40:00.366Z,2.42
2023-05-14T16:42:28.294Z,2.80
2023-05-14T16:44:56.259Z,2.50
2023-05-14T16:47:24.363Z,5.18
2023-05-14T16:49:53.668Z,3.50
2023-05-14T16:52:21.621Z,3.45
2023-05-14T16:54:49.558Z,2.92
2023-05-14T16:57:17.502Z,2.80
2023-05-14T16:59:45.527Z,2.60
2023-05-14T17:02:13.727Z,2.60
2023-05-14T17:07:12.064Z,2.50
2023-05-14T17:09:40.039Z,3.40
2023-05-14T17:12:09.619Z,2.42
2023-05-14T17:14:37.590Z,3.05
2023-05-14T17:17:06.109Z,2.50
2023-05-14T17:19:34.272Z,2.20
2023-05-14T17:24:31.471Z,2.55
2023-05-14T17:26:59.488Z,2.65
2023-05-14T17:29:27.519Z,2.83
2023-05-14T17:31:55.702Z,2.50
2023-05-14T17:34:23.938Z,2.13
2023-05-14T17:39:19.606Z,2.10
2023-05-14T17:41:48.982Z,2.17
2023-05-14T17:44:16.938Z,2.33
2023-05-14T17:46:46.045Z,2.30
2023-05-14T17:49:16.386Z,2.40
2023-05-14T17:51:44.360Z,2.40
2023-05-14T17:54:12.388Z,2.38
2023-05-14T17:56:40.870Z,2.20
2023-05-14T17:59:10.277Z,2.30
2023-05-14T18:01:38.256Z,2.20
2023-05-14T18:04:07.827Z,2.30
2023-05-14T18:06:36.177Z,2.40
2023-05-14T18:11:34.099Z,2.17
2023-05-14T18:14:02.428Z,2.63
2023-05-14T18:16:32.147Z,2.60
2023-05-14T18:19:00.842Z,2.55
2023-05-14T18:21:28.953Z,2.20
2023-05-14T18:23:56.924Z,2.35
2023-05-14T18:26:24.881Z,2.20
2023-05-14T18:28:53.140Z,2.45
2023-05-14T18:33:50.555Z,2.05
2023-05-14T18:36:19.900Z,2.20
2023-05-14T18:38:47.894Z,2.60
2023-05-14T18:41:15.897Z,2.70
2023-05-14T18:43:49.342Z,2.40
2023-05-14T18:46:18.173Z,2.17
2023-05-14T18:48:46.266Z,2.50
2023-05-14T18:51:15.842Z,3.50
2023-05-14T18:53:43.861Z,2.85
2023-05-14T18:56:11.942Z,2.75
2023-05-14T18:58:39.918Z,2.90
2023-05-14T19:01:07.954Z,2.85
2023-05-14T19:03:36.080Z,2.88
2023-05-14T19:06:04.254Z,2.97
2023-05-14T19:08:33.613Z,2.90
2023-05-14T19:11:01.613Z,3.75
2023-05-14T19:13:30.361Z,2.83
2023-05-14T19:15:58.683Z,3.08
2023-05-14T19:20:56.706Z,3.33
2023-05-14T19:23:26.784Z,3.10
2023-05-14T19:25:56.209Z,2.50
2023-05-14T19:28:24.196Z,2.50
2023-05-14T19:30:53.371Z,3.00
2023-05-14T19:33:21.344Z,2.60
2023-05-14T19:35:49.335Z,3.08
2023-05-14T19:38:17.308Z,2.72
2023-05-14T19:40:45.320Z,2.70
2023-05-14T19:43:14.683Z,3.17
2023-05-14T19:45:42.864Z,2.50
2023-05-14T19:50:41.535Z,2.80
2023-05-14T19:53:09.514Z,2.88
2023-05-14T19:55:37.541Z,2.85
2023-05-14T19:58:05.754Z,3.03
2023-05-14T20:00:35.166Z,3.03
2023-05-14T20:03:03.270Z,4.93
2023-05-14T20:05:31.993Z,3.13
2023-05-14T20:07:59.951Z,3.25
2023-05-14T20:10:28.396Z,2.80
2023-05-14T20:12:56.575Z,2.78
2023-05-14T20:15:24.646Z,2.70
2023-05-14T20:17:54.079Z,2.40
2023-05-14T20:20:22.337Z,2.70
2023-05-14T20:25:18.471Z,3.53
2023-05-14T20:27:46.641Z,2.70
2023-05-14T20:30:14.762Z,2.70
2023-05-14T20:32:43.213Z,2.78
2023-05-14T20:35:12.677Z,3.13
2023-05-14T20:37:41.377Z,2.80
2023-05-14T20:40:13.670Z,2.90
2023-05-14T20:42:41.892Z,2.80
2023-05-14T20:45:10.868Z,2.65
2023-05-14T20:47:38.961Z,2.78
2023-05-14T20:50:08.140Z,2.90
2023-05-14T20:52:37.609Z,2.85
2023-05-14T20:55:07.680Z,2.78
2023-05-14T20:57:35.694Z,3.33
2023-05-14T21:00:07.156Z,4.43
2023-05-14T21:02:35.341Z,3.20
2023-05-14T21:05:03.451Z,2.95
2023-05-14T21:07:31.832Z,2.72
2023-05-14T21:12:29.925Z,2.92
2023-05-14T21:14:57.896Z,3.08
2023-05-14T21:17:26.018Z,2.70
2023-05-14T21:19:54.083Z,2.40
2023-05-14T21:22:23.129Z,2.95
2023-05-14T21:24:51.304Z,2.78
2023-05-14T21:27:20.830Z,2.65
2023-05-14T21:29:48.796Z,2.80
2023-05-14T21:32:16.751Z,2.88
2023-05-14T21:34:44.794Z,2.60
2023-05-14T21:37:12.821Z,2.72
2023-05-14T21:39:41.039Z,2.80
2023-05-14T21:42:09.897Z,2.75
2023-05-14T21:44:39.230Z,2.85
2023-05-14T21:47:08.909Z,2.63
2023-05-14T21:49:36.868Z,2.70
2023-05-14T21:52:05.252Z,2.70
2023-05-14T21:57:01.674Z,3.08
2023-05-14T21:59:29.625Z,2.80
2023-05-14T22:04:29.893Z,2.80
2023-05-14T22:06:57.976Z,2.97
2023-05-14T22:09:25.960Z,3.15
2023-05-14T22:11:54.107Z,3.17
2023-05-14T22:14:22.305Z,3.25
2023-05-14T22:16:50.541Z,2.90
2023-05-14T22:19:19.980Z,3.22
2023-05-14T22:21:47.971Z,3.60
2023-05-14T22:24:15.885Z,3.55
2023-05-14T22:26:43.919Z,3.40
2023-05-14T22:29:11.851Z,3.00
2023-05-14T22:31:39.862Z,3.38
2023-05-14T22:34:07.828Z,3.00
2023-05-14T22:36:37.194Z,3.42
2023-05-14T22:39:05.254Z,3.67
2023-05-14T22:41:33.825Z,3.30
2023-05-14T22:44:01.793Z,3.40
2023-05-14T22:46:30.976Z,3.40
2023-05-14T22:48:58.916Z,3.80
2023-05-14T22:51:27.069Z,3.67
2023-05-14T22:53:56.371Z,3.85
2023-05-14T22:56:24.378Z,3.53
2023-05-14T22:58:52.354Z,3.55
2023-05-14T23:01:20.457Z,3.70
2023-05-14T23:03:48.430Z,3.60
2023-05-14T23:06:16.430Z,3.30
2023-05-14T23:08:44.387Z,3.50
2023-05-14T23:11:14.188Z,3.15
2023-05-14T23:13:42.128Z,3.40
2023-05-14T23:16:10.329Z,3.33
2023-05-14T23:18:38.485Z,2.97
2023-05-14T23:21:06.582Z,2.80
2023-05-14T23:23:34.585Z,3.25
2023-05-14T23:26:02.693Z,3.22
2023-05-14T23:28:32.065Z,3.63
2023-05-14T23:30:59.986Z,3.38
2023-05-14T23:33:28.156Z,3.00
2023-05-14T23:35:56.198Z,3.33
2023-05-14T23:38:24.196Z,3.53
2023-05-14T23:40:52.160Z,3.08
2023-05-14T23:43:20.121Z,3.05
2023-05-14T23:45:49.497Z,3.05
2023-05-14T23:48:17.554Z,3.17
2023-05-14T23:50:46.055Z,3.10
2023-05-14T23:55:41.806Z,3.13
2023-05-14T23:58:09.955Z,2.92
